createdAt,value
2023-01-27T00:00:57.593Z,100488.34
2023-01-27T00:03:25.597Z,100484.97
2023-01-27T00:05:52.909Z,100485.03
2023-01-27T00:08:20.779Z,100485.09
2023-01-27T00:11:08.197Z,100484.25
2023-01-27T00:13:35.480Z,100483.31
2023-01-27T00:16:03.114Z,100481.63
2023-01-27T00:18:30.401Z,100485.94
2023-01-27T00:21:16.883Z,100482.53
2023-01-27T00:24:02.870Z,100479.84
2023-01-27T00:26:30.293Z,100481.63
2023-01-27T00:28:57.616Z,100480.75
2023-01-27T00:31:43.434Z,100477.16
2023-01-27T00:34:11.028Z,100475.41
2023-01-27T00:36:41.615Z,100482.44
2023-01-27T00:39:10.657Z,100475.47
2023-01-27T00:41:39.161Z,100474.56
2023-01-27T00:44:07.446Z,100472.78
2023-01-27T00:46:34.900Z,100478.03
2023-01-27T00:49:02.315Z,100490.38
2023-01-27T00:51:31.171Z,100468.44
2023-01-27T00:53:59.307Z,100472.84
2023-01-27T00:56:28.172Z,100478.06
2023-01-27T00:58:55.976Z,100487.72
2023-01-27T01:01:23.709Z,100483.38
2023-01-27T01:03:51.381Z,100476.28
2023-01-27T01:06:19.822Z,100478.16
2023-01-27T01:08:49.064Z,100487.81
2023-01-27T01:11:18.905Z,100491.34
2023-01-27T01:13:46.981Z,100473.78
2023-01-27T01:16:22.910Z,100483.47
2023-01-27T01:18:50.332Z,100486.97
2023-01-27T01:21:17.700Z,100489.59
2023-01-27T01:23:46.429Z,100490.47
2023-01-27T01:26:16.042Z,100491.41
2023-01-27T01:28:45.072Z,100486.16
2023-01-27T01:31:15.902Z,100485.28
2023-01-27T01:33:43.437Z,100482.59
2023-01-27T01:36:13.844Z,100485.19
2023-01-27T01:38:41.972Z,100482.59
2023-01-27T01:41:28.090Z,100485.16
2023-01-27T01:43:55.622Z,100493.97
2023-01-27T01:46:23.128Z,100489.56
2023-01-27T01:48:55.984Z,100490.53
2023-01-27T01:51:34.410Z,100490.50
2023-01-27T01:54:13.855Z,100481.72
2023-01-27T01:56:49.752Z,100486.16
2023-01-27T01:59:27.866Z,100488.81
2023-01-27T02:01:57.989Z,100482.63
2023-01-27T02:04:29.891Z,100483.56
2023-01-27T02:07:18.182Z,100483.53
2023-01-27T02:09:45.580Z,100478.31
2023-01-27T02:12:13.953Z,100480.97
2023-01-27T02:14:41.514Z,100484.44
2023-01-27T02:17:13.165Z,100484.41
2023-01-27T02:19:54.586Z,100484.44
2023-01-27T02:22:32.452Z,100486.22
2023-01-27T02:25:10.360Z,100488.00
2023-01-27T02:27:37.726Z,100477.47
2023-01-27T02:30:05.451Z,100487.09
2023-01-27T02:32:34.600Z,100487.09
2023-01-27T02:35:02.655Z,100478.28
2023-01-27T02:37:31.827Z,100486.22
2023-01-27T02:40:02.129Z,100483.53
2023-01-27T02:42:29.765Z,100480.78
2023-01-27T02:44:57.157Z,100479.94
2023-01-27T02:47:25.354Z,100477.34
2023-01-27T02:49:54.372Z,100473.78
2023-01-27T02:52:23.356Z,100472.91
2023-01-27T02:54:52.800Z,100477.44
2023-01-27T02:57:20.257Z,100474.72
2023-01-27T03:00:04.673Z,100471.28
2023-01-27T03:02:33.724Z,100472.19
2023-01-27T03:05:01.090Z,100465.16
2023-01-27T03:07:28.450Z,100475.66
2023-01-27T03:09:56.162Z,100474.72
2023-01-27T03:12:23.654Z,100475.63
2023-01-27T03:15:11.975Z,100473.84
2023-01-27T03:17:58.514Z,100457.25
2023-01-27T03:20:25.911Z,100459.03
2023-01-27T03:22:53.337Z,100470.41
2023-01-27T03:25:23.153Z,100469.50
2023-01-27T03:27:51.461Z,100461.59
2023-01-27T03:30:43.200Z,100466.81
2023-01-27T03:33:20.927Z,100473.84
2023-01-27T03:36:16.764Z,100470.31
2023-01-27T03:39:06.449Z,100467.69
2023-01-27T03:41:52.941Z,100479.13
2023-01-27T03:44:40.518Z,100471.16
2023-01-27T03:47:08.120Z,100471.09
2023-01-27T03:49:35.487Z,100457.84
2023-01-27T03:52:02.974Z,100469.38
2023-01-27T03:54:30.272Z,100473.78
2023-01-27T03:56:57.698Z,100467.59
2023-01-27T03:59:25.053Z,100474.66
2023-01-27T04:01:52.470Z,100463.22
2023-01-27T04:04:38.232Z,100470.19
2023-01-27T04:07:05.671Z,100468.47
2023-01-27T04:09:36.684Z,100472.06
2023-01-27T04:12:06.514Z,100472.19
2023-01-27T04:14:37.851Z,100474.78
2023-01-27T04:17:10.897Z,100476.47
2023-01-27T04:19:38.795Z,100471.16
2023-01-27T04:22:07.441Z,100464.16
2023-01-27T04:24:34.868Z,100453.59
2023-01-27T04:27:05.572Z,100458.97
2023-01-27T04:29:36.159Z,100461.59
2023-01-27T04:32:06.132Z,100463.34
2023-01-27T04:34:33.857Z,100464.22
2023-01-27T04:37:03.584Z,100462.47
2023-01-27T04:39:31.360Z,100467.72
2023-01-27T04:41:58.781Z,100462.53
2023-01-27T04:44:26.122Z,100459.03
2023-01-27T04:46:56.630Z,100470.47
2023-01-27T04:49:26.801Z,100473.97
2023-01-27T04:51:55.347Z,100466.06
2023-01-27T04:54:22.693Z,100468.69
2023-01-27T04:57:01.144Z,100476.63
2023-01-27T04:59:28.699Z,100474.00
2023-01-27T05:01:56.163Z,100487.13
2023-01-27T05:04:23.589Z,100485.38
2023-01-27T05:06:50.899Z,100478.38
2023-01-27T05:09:18.421Z,100483.72
2023-01-27T05:11:45.738Z,100488.06
2023-01-27T05:14:14.132Z,100487.16
2023-01-27T05:16:41.560Z,100500.38
2023-01-27T05:19:09.578Z,100489.78
2023-01-27T05:21:36.995Z,100496.81
2023-01-27T05:24:04.669Z,100495.97
2023-01-27T05:26:32.096Z,100500.38
2023-01-27T05:28:59.626Z,100500.34
2023-01-27T05:31:29.946Z,100503.84
2023-01-27T05:34:00.287Z,100506.56
2023-01-27T05:36:28.201Z,100507.44
2023-01-27T05:38:56.050Z,100498.53
2023-01-27T05:41:23.729Z,100502.88
2023-01-27T05:43:55.867Z,100510.75
2023-01-27T05:46:29.617Z,100511.69
2023-01-27T05:48:59.801Z,100514.31
2023-01-27T05:51:30.957Z,100511.75
2023-01-27T05:53:58.519Z,100519.69
2023-01-27T05:56:26.629Z,100519.63
2023-01-27T05:58:55.633Z,100525.81
2023-01-27T06:01:25.484Z,100532.00
2023-01-27T06:03:53.040Z,100531.97
2023-01-27T06:06:22.698Z,100527.53
2023-01-27T06:08:50.371Z,100541.53
2023-01-27T06:11:20.017Z,100537.16
2023-01-27T06:13:48.336Z,100524.94
2023-01-27T06:16:18.315Z,100529.31
2023-01-27T06:18:46.474Z,100538.13
2023-01-27T06:21:15.319Z,100531.16
2023-01-27T06:23:43.485Z,100545.16
2023-01-27T06:26:14.511Z,100531.06
2023-01-27T06:28:42.441Z,100535.41
2023-01-27T06:31:16.804Z,100537.34
2023-01-27T06:33:44.872Z,100538.19
2023-01-27T06:36:17.867Z,100545.25
2023-01-27T06:38:45.627Z,100540.81
2023-01-27T06:41:13.251Z,100540.78
2023-01-27T06:43:40.577Z,100538.94
2023-01-27T06:46:08.002Z,100540.72
2023-01-27T06:48:35.417Z,100547.75
2023-01-27T06:51:02.846Z,100546.94
2023-01-27T06:53:31.465Z,100550.41
2023-01-27T06:56:01.251Z,100550.47
2023-01-27T06:58:29.434Z,100550.47
2023-01-27T07:00:57.145Z,100558.31
2023-01-27T07:03:24.665Z,100562.69
2023-01-27T07:05:53.221Z,100557.31
2023-01-27T07:08:20.497Z,100561.69
2023-01-27T07:10:47.945Z,100563.50
2023-01-27T07:13:15.668Z,100560.91
2023-01-27T07:15:43.244Z,100556.56
2023-01-27T07:18:12.355Z,100562.72
2023-01-27T07:20:40.777Z,100564.47
2023-01-27T07:23:09.727Z,100563.53
2023-01-27T07:25:37.541Z,100568.88
2023-01-27T07:28:05.619Z,100573.22
2023-01-27T07:30:37.566Z,100574.16
2023-01-27T07:33:09.406Z,100576.72
2023-01-27T07:35:37.120Z,100580.31
2023-01-27T07:38:09.825Z,100579.41
2023-01-27T07:40:37.420Z,100581.13
2023-01-27T07:43:04.833Z,100584.63
2023-01-27T07:45:35.076Z,100581.94
2023-01-27T07:48:04.157Z,100588.94
2023-01-27T07:50:32.125Z,100588.94
2023-01-27T07:53:03.724Z,100587.13
2023-01-27T07:55:32.455Z,100590.69
2023-01-27T07:58:00.049Z,100587.22
2023-01-27T08:00:28.407Z,100584.59
2023-01-27T08:02:57.445Z,100582.81
2023-01-27T08:05:25.343Z,100589.81
2023-01-27T08:07:55.168Z,100592.41
2023-01-27T08:10:23.422Z,100582.75
2023-01-27T08:12:50.847Z,100583.53
2023-01-27T08:15:19.271Z,100582.63
2023-01-27T08:17:54.440Z,100594.09
2023-01-27T08:20:22.916Z,100588.00
2023-01-27T08:22:50.230Z,100586.22
2023-01-27T08:25:17.525Z,100595.91
2023-01-27T08:27:44.832Z,100602.97
2023-01-27T08:30:12.493Z,100603.78
2023-01-27T08:32:39.967Z,100599.34
2023-01-27T08:35:07.613Z,100597.53
2023-01-27T08:37:34.929Z,100595.72
2023-01-27T08:40:02.742Z,100598.38
2023-01-27T08:42:30.032Z,100597.50
2023-01-27T08:44:58.250Z,100599.19
2023-01-27T08:47:25.523Z,100600.97
2023-01-27T08:49:54.428Z,100596.47
2023-01-27T08:52:23.483Z,100604.38
2023-01-27T08:54:50.864Z,100606.97
2023-01-27T08:57:18.439Z,100613.03
2023-01-27T08:59:46.348Z,100611.19
2023-01-27T09:02:14.466Z,100603.56
2023-01-27T09:04:44.443Z,100605.34
2023-01-27T09:07:11.986Z,100612.41
2023-01-27T09:09:39.314Z,100606.13
2023-01-27T09:12:07.038Z,100610.50
2023-01-27T09:14:34.475Z,100602.63
2023-01-27T09:17:01.910Z,100604.38
2023-01-27T09:19:29.441Z,100609.78
2023-01-27T09:21:56.894Z,100616.75
2023-01-27T09:24:24.445Z,100615.06
2023-01-27T09:26:51.916Z,100617.56
2023-01-27T09:29:19.337Z,100619.28
2023-01-27T09:31:46.810Z,100614.81
2023-01-27T09:34:14.206Z,100639.41
2023-01-27T09:36:47.448Z,100628.81
2023-01-27T09:39:17.021Z,100635.19
2023-01-27T09:42:49.234Z,100641.38
2023-01-27T09:45:49.007Z,100635.16
2023-01-27T09:48:35.286Z,100638.50
2023-01-27T09:51:28.347Z,100638.56
2023-01-27T09:54:20.377Z,100644.69
2023-01-27T09:56:59.211Z,100638.41
2023-01-27T09:59:42.311Z,100644.81
2023-01-27T10:02:28.503Z,100639.47
2023-01-27T10:05:24.104Z,100637.84
2023-01-27T10:08:05.051Z,100640.44
2023-01-27T10:10:40.305Z,100638.69
2023-01-27T10:13:19.373Z,100638.59
2023-01-27T10:16:23.587Z,100640.44
2023-01-27T10:19:06.368Z,100640.31
2023-01-27T10:21:42.842Z,100641.97
2023-01-27T10:24:33.207Z,100635.81
2023-01-27T10:27:20.821Z,100646.28
2023-01-27T10:29:55.852Z,100641.03
2023-01-27T10:32:28.281Z,100624.28
2023-01-27T10:34:58.410Z,100627.78
2023-01-27T10:37:45.533Z,100627.00
2023-01-27T10:40:40.383Z,100630.41
2023-01-27T10:43:26.069Z,100623.28
2023-01-27T10:46:23.906Z,100633.06
2023-01-27T10:49:06.874Z,100614.66
2023-01-27T10:51:52.562Z,100619.75
2023-01-27T10:54:38.134Z,100632.03
2023-01-27T10:57:11.506Z,100624.19
2023-01-27T11:00:51.428Z,100625.94
2023-01-27T11:03:15.408Z,100626.81
2023-01-27T11:05:48.424Z,100625.19
2023-01-27T11:08:20.044Z,100617.28
2023-01-27T11:11:07.861Z,100616.31
2023-01-27T11:13:35.445Z,100618.88
2023-01-27T11:16:05.581Z,100615.28
2023-01-27T11:18:37.756Z,100609.78
2023-01-27T11:21:11.067Z,100612.59
2023-01-27T11:23:45.710Z,100617.75
2023-01-27T11:26:39.491Z,100603.00
2023-01-27T11:29:31.911Z,100597.56
2023-01-27T11:32:21.262Z,100599.31
2023-01-27T11:35:02.549Z,100594.00
2023-01-27T11:37:41.461Z,100591.28
2023-01-27T11:40:21.734Z,100590.28
2023-01-27T11:42:51.812Z,100577.47
2023-01-27T11:45:21.311Z,100580.28
2023-01-27T11:47:53.192Z,100577.91
2023-01-27T11:50:22.307Z,100562.59
2023-01-27T11:52:54.723Z,100574.09
2023-01-27T11:55:27.350Z,100565.03
2023-01-27T11:58:12.233Z,100561.78
2023-01-27T12:00:45.524Z,100566.81
2023-01-27T12:03:21.891Z,100562.41
2023-01-27T12:05:55.575Z,100560.59
2023-01-27T12:08:36.520Z,100558.16
2023-01-27T12:11:18.462Z,100554.44
2023-01-27T12:14:00.109Z,100551.88
2023-01-27T12:16:40.498Z,100545.78
2023-01-27T12:19:17.904Z,100542.13
2023-01-27T12:21:52.456Z,100542.28
2023-01-27T12:24:28.242Z,100533.31
2023-01-27T12:26:56.773Z,100531.41
2023-01-27T12:29:38.951Z,100529.56
2023-01-27T12:32:15.744Z,100524.16
2023-01-27T12:34:49.224Z,100528.53
2023-01-27T12:37:24.107Z,100518.72
2023-01-27T12:40:00.517Z,100511.66
2023-01-27T12:42:42.116Z,100511.72
2023-01-27T12:45:21.335Z,100511.81
2023-01-27T12:47:57.845Z,100509.25
2023-01-27T12:50:32.326Z,100508.09
2023-01-27T12:53:09.361Z,100497.56
2023-01-27T12:55:41.111Z,100508.72
2023-01-27T12:58:27.595Z,100499.75
2023-01-27T13:00:55.583Z,100498.06
2023-01-27T13:03:23.903Z,100482.09
2023-01-27T13:05:57.212Z,100485.44
2023-01-27T13:08:27.516Z,100484.06
2023-01-27T13:10:58.213Z,100492.09
2023-01-27T13:13:28.039Z,100493.78
2023-01-27T13:16:17.721Z,100495.50
2023-01-27T13:18:56.506Z,100497.31
2023-01-27T13:21:34.234Z,100498.50
2023-01-27T13:24:10.339Z,100490.59
2023-01-27T13:26:40.349Z,100496.81
2023-01-27T13:29:15.554Z,100488.78
2023-01-27T13:32:01.959Z,100483.66
2023-01-27T13:34:48.560Z,100487.19
2023-01-27T13:37:40.765Z,100490.66
2023-01-27T13:40:21.593Z,100482.25
2023-01-27T13:42:59.629Z,100487.09
2023-01-27T13:45:40.330Z,100497.03
2023-01-27T13:48:20.337Z,100476.03
2023-01-27T13:50:53.332Z,100493.72
2023-01-27T13:53:20.849Z,100488.22
2023-01-27T13:56:03.165Z,100482.69
2023-01-27T13:58:44.419Z,100484.22
2023-01-27T14:01:28.403Z,100492.25
2023-01-27T14:04:23.010Z,100488.28
2023-01-27T14:07:08.575Z,100495.06
2023-01-27T14:09:46.921Z,100494.47
2023-01-27T14:12:21.445Z,100495.28
2023-01-27T14:15:01.837Z,100497.13
2023-01-27T14:17:41.935Z,100492.59
2023-01-27T14:20:15.403Z,100490.91
2023-01-27T14:22:53.720Z,100491.63
2023-01-27T14:25:30.686Z,100496.28
2023-01-27T14:28:15.660Z,100496.28
2023-01-27T14:30:49.193Z,100501.41
2023-01-27T14:33:26.456Z,100495.94
2023-01-27T14:36:15.004Z,100492.63
2023-01-27T14:38:55.578Z,100503.19
2023-01-27T14:41:27.649Z,100500.56
2023-01-27T14:44:06.254Z,100497.19
2023-01-27T14:46:57.700Z,100503.41
2023-01-27T14:49:37.888Z,100505.19
2023-01-27T14:52:41.973Z,100506.13
2023-01-27T14:55:18.239Z,100503.56
2023-01-27T14:58:14.820Z,100514.00
2023-01-27T15:01:23.394Z,100516.13
2023-01-27T15:04:09.249Z,100509.03
2023-01-27T15:06:45.043Z,100515.16
2023-01-27T15:09:21.266Z,100520.47
2023-01-27T15:12:03.857Z,100525.00
2023-01-27T15:14:57.885Z,100518.69
2023-01-27T15:17:28.223Z,100523.28
2023-01-27T15:20:14.208Z,100521.50
2023-01-27T15:23:07.432Z,100521.59
2023-01-27T15:25:43.907Z,100517.25
2023-01-27T15:28:17.778Z,100519.06
2023-01-27T15:31:17.631Z,100524.44
2023-01-27T15:33:53.741Z,100518.28
2023-01-27T15:36:27.058Z,100520.03
2023-01-27T15:39:09.499Z,100519.16
2023-01-27T15:41:58.190Z,100527.13
2023-01-27T15:44:25.601Z,100527.19
2023-01-27T15:46:54.526Z,100522.81
2023-01-27T15:49:27.291Z,100529.84
2023-01-27T15:52:07.870Z,100538.69
2023-01-27T15:54:40.525Z,100526.31
2023-01-27T15:57:24.969Z,100530.81
2023-01-27T15:59:59.038Z,100531.69
2023-01-27T16:02:32.134Z,100540.44
2023-01-27T16:05:37.566Z,100540.63
2023-01-27T16:08:14.562Z,100545.97
2023-01-27T16:10:42.856Z,100549.59
2023-01-27T16:13:26.082Z,100563.72
2023-01-27T16:16:18.395Z,100559.34
2023-01-27T16:19:10.663Z,100569.88
2023-01-27T16:21:44.718Z,100560.22
2023-01-27T16:24:24.157Z,100579.59
2023-01-27T16:27:07.575Z,100570.84
2023-01-27T16:29:46.396Z,100570.88
2023-01-27T16:32:19.274Z,100583.25
2023-01-27T16:34:54.127Z,100578.88
2023-01-27T16:37:27.661Z,100579.75
2023-01-27T16:40:02.253Z,100578.88
2023-01-27T16:42:37.078Z,100585.03
2023-01-27T16:45:21.422Z,100584.19
2023-01-27T16:47:56.705Z,100586.84
2023-01-27T16:50:44.322Z,100588.69
2023-01-27T16:53:18.845Z,100590.50
2023-01-27T16:56:03.844Z,100588.81
2023-01-27T16:58:45.472Z,100580.00
2023-01-27T17:01:34.138Z,100599.34
2023-01-27T17:04:19.519Z,100594.09
2023-01-27T17:06:49.340Z,100601.16
2023-01-27T17:09:32.167Z,100603.00
2023-01-27T17:11:59.600Z,100594.22
2023-01-27T17:14:34.665Z,100606.50
2023-01-27T17:17:05.893Z,100599.50
2023-01-27T17:19:36.061Z,100602.13
2023-01-27T17:22:22.592Z,100609.19
2023-01-27T17:24:55.017Z,100612.72
2023-01-27T17:27:37.946Z,100617.91
2023-01-27T17:30:13.884Z,100609.19
2023-01-27T17:32:45.876Z,100618.00
2023-01-27T17:35:25.470Z,100619.69
2023-01-27T17:38:03.855Z,100617.97
2023-01-27T17:40:38.579Z,100614.44
2023-01-27T17:43:28.880Z,100632.94
2023-01-27T17:46:05.525Z,100624.97
2023-01-27T17:48:35.004Z,100628.56
2023-01-27T17:51:02.421Z,100639.09
2023-01-27T17:53:30.273Z,100625.94
2023-01-27T17:55:57.766Z,100632.00
2023-01-27T17:58:27.682Z,100644.38
2023-01-27T18:00:56.262Z,100647.84
2023-01-27T18:03:29.753Z,100648.72
2023-01-27T18:05:57.343Z,100661.97
2023-01-27T18:08:24.708Z,100657.59
2023-01-27T18:10:52.659Z,100658.56
2023-01-27T18:13:20.008Z,100667.34
2023-01-27T18:15:50.381Z,100669.16
2023-01-27T18:18:26.455Z,100673.53
2023-01-27T18:21:04.125Z,100682.31
2023-01-27T18:23:34.836Z,100685.84
2023-01-27T18:26:22.038Z,100680.59
2023-01-27T18:29:11.725Z,100692.03
2023-01-27T18:31:49.126Z,100682.34
2023-01-27T18:34:29.296Z,100688.53
2023-01-27T18:37:03.194Z,100696.47
2023-01-27T18:39:36.600Z,100701.72
2023-01-27T18:42:12.942Z,100698.22
2023-01-27T18:44:40.327Z,100706.16
2023-01-27T18:47:19.903Z,100711.41
2023-01-27T18:50:12.253Z,100721.06
2023-01-27T18:52:40.402Z,100721.06
2023-01-27T18:55:25.543Z,100717.56
2023-01-27T18:57:58.694Z,100719.31
2023-01-27T19:00:30.364Z,100724.59
2023-01-27T19:03:00.912Z,100719.31
2023-01-27T19:05:32.981Z,100723.69
2023-01-27T19:08:01.231Z,100717.56
2023-01-27T19:10:34.011Z,100730.75
2023-01-27T19:13:03.384Z,100723.72
2023-01-27T19:15:33.432Z,100718.41
2023-01-27T19:18:06.740Z,100735.16
2023-01-27T19:20:34.156Z,100721.94
2023-01-27T19:23:01.501Z,100734.28
2023-01-27T19:25:31.326Z,100726.38
2023-01-27T19:28:04.550Z,100734.22
2023-01-27T19:30:37.591Z,100726.34
2023-01-27T19:33:17.019Z,100726.34
2023-01-27T19:35:48.592Z,100736.91
2023-01-27T19:38:15.898Z,100743.03
2023-01-27T19:40:43.380Z,100733.38
2023-01-27T19:43:15.143Z,100736.88
2023-01-27T19:45:47.576Z,100761.47
2023-01-27T19:48:17.789Z,100764.13
2023-01-27T19:50:45.993Z,100743.91
2023-01-27T19:53:14.849Z,100763.25
2023-01-27T19:55:42.512Z,100750.94
2023-01-27T19:58:24.901Z,100759.72
2023-01-27T20:00:53.956Z,100765.88
2023-01-27T20:03:39.668Z,100758.78
2023-01-27T20:06:27.669Z,100761.44
2023-01-27T20:08:59.806Z,100773.75
2023-01-27T20:11:41.450Z,100771.16
2023-01-27T20:14:19.019Z,100779.91
2023-01-27T20:16:47.533Z,100781.69
2023-01-27T20:19:18.821Z,100783.44
2023-01-27T20:21:46.759Z,100779.91
2023-01-27T20:24:19.025Z,100782.53
2023-01-27T20:26:47.579Z,100779.06
2023-01-27T20:29:15.781Z,100781.69
2023-01-27T20:31:44.328Z,100780.81
2023-01-27T20:34:11.824Z,100791.31
2023-01-27T20:36:39.203Z,100798.31
2023-01-27T20:39:07.183Z,100799.19
2023-01-27T20:41:34.640Z,100789.53
2023-01-27T20:44:02.043Z,100796.59
2023-01-27T20:46:30.764Z,100800.97
2023-01-27T20:49:00.280Z,100808.00
2023-01-27T20:51:28.629Z,100794.81
2023-01-27T20:53:58.576Z,100806.19
2023-01-27T20:56:26.181Z,100807.91
2023-01-27T20:58:54.344Z,100800.03
2023-01-27T21:01:24.303Z,100806.16
2023-01-27T21:03:52.101Z,100805.25
2023-01-27T21:06:20.140Z,100814.03
2023-01-27T21:08:49.305Z,100815.88
2023-01-27T21:11:20.095Z,100807.06
2023-01-27T21:13:48.673Z,100820.16
2023-01-27T21:16:16.122Z,100812.28
2023-01-27T21:18:44.229Z,100806.13
2023-01-27T21:21:30.666Z,100816.66
2023-01-27T21:24:00.116Z,100814.91
2023-01-27T21:26:27.905Z,100814.03
2023-01-27T21:28:56.444Z,100818.44
2023-01-27T21:31:30.212Z,100824.47
2023-01-27T21:34:00.001Z,100812.19
2023-01-27T21:36:27.374Z,100817.50
2023-01-27T21:38:54.784Z,100814.00
2023-01-27T21:41:42.518Z,100817.50
2023-01-27T21:44:37.932Z,100823.59
2023-01-27T21:47:07.696Z,100828.81
2023-01-27T21:49:55.527Z,100829.66
2023-01-27T21:52:24.295Z,100821.72
2023-01-27T21:54:52.342Z,100820.88
2023-01-27T21:57:19.690Z,100832.22
2023-01-27T21:59:47.315Z,100820.81
2023-01-27T22:02:19.112Z,100828.66
2023-01-27T22:04:47.140Z,100823.47
2023-01-27T22:07:16.894Z,100819.13
2023-01-27T22:09:44.540Z,100820.88
2023-01-27T22:12:15.294Z,100822.63
2023-01-27T22:14:43.761Z,100812.00
2023-01-27T22:17:11.223Z,100834.78
2023-01-27T22:19:39.779Z,100827.72
2023-01-27T22:22:09.352Z,100824.22
2023-01-27T22:24:36.709Z,100838.28
2023-01-27T22:27:04.112Z,100830.34
2023-01-27T22:29:31.414Z,100832.97
2023-01-27T22:31:58.767Z,100833.03
2023-01-27T22:34:26.991Z,100827.72
2023-01-27T22:36:54.355Z,100822.47
2023-01-27T22:39:21.802Z,100825.94
2023-01-27T22:41:50.383Z,100829.47
2023-01-27T22:44:18.099Z,100831.13
2023-01-27T22:46:45.528Z,100833.72
2023-01-27T22:49:12.924Z,100835.47
2023-01-27T22:51:40.328Z,100833.78
2023-01-27T22:54:09.491Z,100832.97
2023-01-27T22:56:36.954Z,100839.09
2023-01-27T22:59:04.335Z,100849.63
2023-01-27T23:01:31.738Z,100844.38
2023-01-27T23:03:59.314Z,100839.91
2023-01-27T23:06:26.782Z,100835.59
2023-01-27T23:08:54.151Z,100838.28
2023-01-27T23:11:21.586Z,100839.25
2023-01-27T23:13:49.129Z,100826.97
2023-01-27T23:16:16.483Z,100821.72
2023-01-27T23:18:43.867Z,100829.69
2023-01-27T23:21:11.351Z,100829.69
2023-01-27T23:23:38.744Z,100826.13
2023-01-27T23:26:09.922Z,100812.00
2023-01-27T23:28:39.072Z,100817.25
2023-01-27T23:31:11.208Z,100819.00
2023-01-27T23:33:41.361Z,100829.53
2023-01-27T23:36:10.313Z,100816.31
2023-01-27T23:38:38.735Z,100822.47
2023-01-27T23:41:18.214Z,100826.88
2023-01-27T23:43:51.014Z,100830.41
2023-01-27T23:46:19.433Z,100826.03
2023-01-27T23:48:55.386Z,100827.00
2023-01-27T23:51:22.964Z,100826.94
2023-01-27T23:53:51.191Z,100841.75
2023-01-27T23:56:20.244Z,100825.03
2023-01-27T23:58:48.141Z,100832.16
